createdAt,value
2023-04-30T00:00:10.439Z,5.22
2023-04-30T00:02:37.076Z,4.82
2023-04-30T00:05:03.719Z,4.20
2023-04-30T00:07:30.280Z,4.38
2023-04-30T00:09:56.912Z,4.47
2023-04-30T00:12:23.754Z,4.20
2023-04-30T00:14:50.285Z,3.92
2023-04-30T00:17:16.753Z,4.40
2023-04-30T00:19:43.191Z,3.85
2023-04-30T00:22:09.645Z,4.28
2023-04-30T00:24:36.157Z,4.53
2023-04-30T00:27:02.547Z,4.10
2023-04-30T00:29:28.956Z,4.00
2023-04-30T00:31:55.395Z,4.63
2023-04-30T00:34:21.908Z,4.47
2023-04-30T00:36:48.325Z,4.45
2023-04-30T00:39:15.086Z,4.05
2023-04-30T00:41:41.604Z,4.53
2023-04-30T00:44:08.410Z,3.90
2023-04-30T00:46:34.774Z,4.03
2023-04-30T00:49:04.780Z,4.10
2023-04-30T00:51:35.302Z,4.47
2023-04-30T00:54:03.141Z,4.05
2023-04-30T00:56:30.907Z,4.00
2023-04-30T00:58:57.789Z,4.22
2023-04-30T01:01:25.425Z,4.20
2023-04-30T01:03:52.232Z,4.07
2023-04-30T01:06:18.670Z,4.07
2023-04-30T01:08:45.274Z,4.70
2023-04-30T01:11:40.745Z,4.10
2023-04-30T01:14:25.803Z,4.20
2023-04-30T01:17:06.365Z,4.30
2023-04-30T01:19:51.162Z,4.00
2023-04-30T01:22:38.319Z,4.20
2023-04-30T01:25:20.898Z,4.18
2023-04-30T01:28:06.933Z,4.22
2023-04-30T01:30:34.112Z,4.10
2023-04-30T01:33:00.810Z,3.90
2023-04-30T01:35:49.149Z,3.85
2023-04-30T01:38:38.016Z,4.18
2023-04-30T01:41:18.298Z,4.35
2023-04-30T01:44:03.547Z,3.80
2023-04-30T01:46:30.880Z,3.83
2023-04-30T01:49:28.119Z,4.47
2023-04-30T01:52:02.488Z,4.18
2023-04-30T01:54:35.524Z,4.25
2023-04-30T01:57:05.967Z,3.90
2023-04-30T01:59:33.524Z,4.18
2023-04-30T02:02:00.650Z,4.63
2023-04-30T02:04:27.117Z,3.95
2023-04-30T02:06:53.721Z,4.50
2023-04-30T02:09:20.153Z,4.35
2023-04-30T02:11:46.542Z,3.90
2023-04-30T02:14:13.016Z,4.43
2023-04-30T02:16:39.477Z,3.72
2023-04-30T02:19:05.881Z,4.30
2023-04-30T02:21:32.420Z,4.20
2023-04-30T02:23:58.810Z,4.13
2023-04-30T02:26:26.461Z,4.65
2023-04-30T02:28:52.827Z,4.70
2023-04-30T02:31:19.690Z,5.00
2023-04-30T02:33:46.116Z,5.07
2023-04-30T02:36:12.609Z,5.07
2023-04-30T02:38:39.029Z,4.65
2023-04-30T02:41:05.604Z,5.28
2023-04-30T02:43:31.996Z,4.60
2023-04-30T02:45:58.427Z,4.72
2023-04-30T02:48:25.041Z,4.50
2023-04-30T02:50:51.412Z,4.47
2023-04-30T02:53:18.019Z,4.57
2023-04-30T02:55:44.385Z,3.63
2023-04-30T02:58:11.103Z,4.97
2023-04-30T03:00:37.635Z,4.75
2023-04-30T03:03:04.243Z,4.25
2023-04-30T03:05:30.769Z,4.82
2023-04-30T03:07:57.183Z,4.90
2023-04-30T03:10:23.534Z,4.63
2023-04-30T03:12:49.957Z,5.32
2023-04-30T03:15:16.422Z,5.60
2023-04-30T03:17:45.895Z,4.80
2023-04-30T03:20:12.890Z,4.75
2023-04-30T03:22:39.312Z,4.47
2023-04-30T03:25:06.142Z,5.20
2023-04-30T03:27:32.566Z,5.05
2023-04-30T03:29:58.964Z,4.93
2023-04-30T03:32:25.476Z,5.07
2023-04-30T03:34:51.863Z,5.35
2023-04-30T03:37:18.353Z,5.30
2023-04-30T03:39:44.734Z,5.15
2023-04-30T03:42:11.236Z,5.20
2023-04-30T03:44:38.986Z,5.20
2023-04-30T03:47:05.392Z,4.90
2023-04-30T03:49:32.251Z,4.82
2023-04-30T03:51:58.720Z,5.10
2023-04-30T03:54:25.137Z,4.90
2023-04-30T03:56:51.522Z,5.53
2023-04-30T03:59:18.075Z,4.75
2023-04-30T04:01:44.468Z,5.20
2023-04-30T04:04:11.550Z,4.78
2023-04-30T04:06:38.053Z,5.88
2023-04-30T04:09:04.894Z,5.28
2023-04-30T04:11:31.330Z,5.32
2023-04-30T04:13:57.810Z,5.30
2023-04-30T04:16:24.203Z,5.03
2023-04-30T04:18:50.938Z,5.85
2023-04-30T04:21:19.429Z,5.60
2023-04-30T04:23:45.905Z,5.38
2023-04-30T04:26:12.690Z,5.97
2023-04-30T04:28:39.084Z,5.97
2023-04-30T04:31:05.529Z,5.47
2023-04-30T04:33:32.221Z,6.10
2023-04-30T04:35:59.236Z,5.97
2023-04-30T04:38:25.901Z,5.85
2023-04-30T04:40:56.522Z,6.57
2023-04-30T04:43:23.025Z,6.03
2023-04-30T04:45:49.773Z,6.13
2023-04-30T04:48:16.288Z,6.45
2023-04-30T04:50:42.743Z,6.18
2023-04-30T04:53:09.196Z,6.90
2023-04-30T04:55:36.159Z,6.10
2023-04-30T04:58:02.526Z,6.68
2023-04-30T05:00:29.801Z,6.97
2023-04-30T05:02:56.642Z,7.32
2023-04-30T05:05:23.095Z,7.85
2023-04-30T05:07:52.238Z,7.93
2023-04-30T05:10:18.627Z,8.63
2023-04-30T05:12:45.011Z,8.02
2023-04-30T05:15:11.544Z,8.75
2023-04-30T05:17:38.135Z,8.05
2023-04-30T05:20:07.147Z,9.02
2023-04-30T05:22:33.637Z,8.63
2023-04-30T05:25:00.032Z,8.50
2023-04-30T05:27:27.018Z,8.63
2023-04-30T05:29:53.607Z,8.70
2023-04-30T05:32:20.183Z,10.30
2023-04-30T05:34:46.599Z,9.75
2023-04-30T05:37:14.381Z,9.63
2023-04-30T05:39:40.769Z,9.65
2023-04-30T05:42:07.361Z,10.15
2023-04-30T05:44:33.749Z,9.38
2023-04-30T05:47:00.135Z,10.10
2023-04-30T05:49:27.456Z,10.68
2023-04-30T05:51:53.836Z,10.73
2023-04-30T05:54:20.215Z,10.30
2023-04-30T05:56:46.574Z,10.27
2023-04-30T05:59:13.839Z,10.18
2023-04-30T06:01:40.399Z,10.45
2023-04-30T06:04:06.923Z,9.10
2023-04-30T06:06:33.414Z,11.05
2023-04-30T06:08:59.827Z,9.05
2023-04-30T06:11:26.241Z,8.15
2023-04-30T06:13:52.810Z,7.03
2023-04-30T06:16:19.252Z,7.28
2023-04-30T06:18:45.745Z,6.65
2023-04-30T06:21:12.132Z,6.82
2023-04-30T06:23:38.574Z,5.30
2023-04-30T06:26:05.063Z,5.90
2023-04-30T06:28:31.433Z,4.50
2023-04-30T06:30:57.996Z,4.90
2023-04-30T06:33:24.430Z,4.28
2023-04-30T06:35:54.503Z,4.10
2023-04-30T06:38:21.298Z,3.38
2023-04-30T06:40:47.891Z,4.43
2023-04-30T06:43:14.291Z,3.85
2023-04-30T06:45:40.856Z,3.80
2023-04-30T06:48:07.383Z,3.47
2023-04-30T06:50:34.058Z,3.50
2023-04-30T06:53:00.658Z,3.53
2023-04-30T06:55:28.045Z,3.15
2023-04-30T06:57:54.510Z,3.55
2023-04-30T07:00:20.906Z,3.63
2023-04-30T07:02:51.808Z,3.53
2023-04-30T07:05:18.777Z,3.40
2023-04-30T07:07:45.460Z,3.10
2023-04-30T07:10:11.867Z,2.90
2023-04-30T07:12:38.248Z,3.90
2023-04-30T07:15:04.902Z,2.88
2023-04-30T07:17:31.318Z,2.83
2023-04-30T07:19:57.769Z,2.80
2023-04-30T07:22:24.135Z,2.70
2023-04-30T07:24:50.583Z,3.13
2023-04-30T07:27:17.009Z,3.13
2023-04-30T07:29:43.489Z,3.13
2023-04-30T07:32:09.898Z,2.90
2023-04-30T07:34:36.308Z,3.30
2023-04-30T07:37:03.176Z,3.03
2023-04-30T07:39:30.937Z,2.95
2023-04-30T07:41:57.318Z,3.13
2023-04-30T07:44:23.707Z,3.22
2023-04-30T07:46:50.232Z,3.65
2023-04-30T07:49:16.619Z,3.38
2023-04-30T07:51:42.991Z,2.88
2023-04-30T07:54:09.484Z,3.10
2023-04-30T07:56:36.155Z,3.05
2023-04-30T07:59:02.559Z,3.40
2023-04-30T08:01:29.016Z,3.42
2023-04-30T08:03:55.963Z,3.28
2023-04-30T08:06:22.768Z,3.05
2023-04-30T08:08:50.450Z,3.05
2023-04-30T08:11:17.066Z,3.05
2023-04-30T08:13:43.500Z,2.42
2023-04-30T08:16:10.049Z,3.05
2023-04-30T08:18:38.683Z,3.13
2023-04-30T08:21:05.970Z,2.92
2023-04-30T08:23:32.406Z,3.13
2023-04-30T08:25:58.870Z,3.08
2023-04-30T08:28:25.246Z,3.05
2023-04-30T08:30:51.654Z,3.28
2023-04-30T08:33:18.329Z,3.20
2023-04-30T08:35:45.552Z,2.88
2023-04-30T08:38:11.996Z,2.95
2023-04-30T08:40:51.059Z,2.80
2023-04-30T08:43:18.467Z,2.72
2023-04-30T08:45:45.456Z,2.65
2023-04-30T08:48:13.961Z,2.63
2023-04-30T08:50:41.042Z,2.63
2023-04-30T08:53:08.240Z,2.70
2023-04-30T08:55:35.085Z,2.70
2023-04-30T08:58:01.715Z,2.63
2023-04-30T09:00:28.223Z,2.67
2023-04-30T09:02:54.781Z,2.40
2023-04-30T09:05:21.283Z,3.03
2023-04-30T09:10:19.216Z,3.63
2023-04-30T09:13:06.384Z,3.45
2023-04-30T09:15:34.153Z,6.32
2023-04-30T09:18:19.969Z,4.18
2023-04-30T09:21:03.581Z,5.32
2023-04-30T09:23:30.740Z,2.60
2023-04-30T09:25:57.191Z,2.63
2023-04-30T09:28:26.316Z,4.95
2023-04-30T09:30:53.206Z,6.15
2023-04-30T09:33:20.293Z,4.18
2023-04-30T09:35:46.729Z,2.53
2023-04-30T09:38:30.392Z,5.47
2023-04-30T09:40:59.903Z,11.65
2023-04-30T09:43:27.477Z,8.65
2023-04-30T09:45:53.894Z,7.90
2023-04-30T09:48:25.128Z,11.10
2023-04-30T09:50:52.044Z,17.97
2023-04-30T09:53:19.097Z,22.45
2023-04-30T09:55:47.456Z,14.63
2023-04-30T09:58:14.740Z,5.05
2023-04-30T10:00:42.181Z,11.27
2023-04-30T10:03:10.110Z,2.95
2023-04-30T10:05:42.611Z,9.95
2023-04-30T10:08:37.985Z,10.32
2023-04-30T10:11:06.026Z,2.95
2023-04-30T10:13:35.922Z,4.13
2023-04-30T10:16:07.988Z,3.03
2023-04-30T10:18:39.921Z,3.85
2023-04-30T10:21:12.544Z,2.38
2023-04-30T10:23:40.040Z,2.75
2023-04-30T10:26:06.544Z,2.20
2023-04-30T10:28:33.100Z,2.47
2023-04-30T10:30:59.601Z,2.88
2023-04-30T10:33:31.723Z,2.40
2023-04-30T10:38:28.115Z,1.67
2023-04-30T10:40:59.218Z,2.20
2023-04-30T10:43:26.000Z,2.30
2023-04-30T10:45:52.510Z,1.75
2023-04-30T10:48:25.464Z,2.10
2023-04-30T10:50:54.747Z,1.83
2023-04-30T10:53:23.003Z,1.90
2023-04-30T10:56:01.245Z,1.83
2023-04-30T10:58:30.637Z,1.73
2023-04-30T11:01:01.526Z,2.00
2023-04-30T11:03:32.575Z,1.70
2023-04-30T11:06:03.725Z,1.85
2023-04-30T11:08:37.528Z,2.10
2023-04-30T11:11:05.168Z,1.90
2023-04-30T11:14:01.067Z,2.28
2023-04-30T11:16:32.072Z,2.08
2023-04-30T11:19:13.002Z,2.00
2023-04-30T11:22:05.169Z,1.92
2023-04-30T11:24:50.896Z,2.03
2023-04-30T11:27:37.859Z,1.92
2023-04-30T11:30:10.476Z,2.10
2023-04-30T11:32:37.937Z,1.80
2023-04-30T11:35:06.014Z,1.83
2023-04-30T11:37:38.990Z,2.08
2023-04-30T11:40:08.587Z,1.88
2023-04-30T11:42:35.143Z,1.80
2023-04-30T11:45:08.831Z,1.90
2023-04-30T11:47:49.408Z,1.90
2023-04-30T11:50:21.205Z,1.80
2023-04-30T11:52:51.464Z,1.92
2023-04-30T11:55:19.209Z,1.77
2023-04-30T11:57:47.755Z,2.55
2023-04-30T12:00:19.572Z,5.13
2023-04-30T12:02:50.976Z,2.45
2023-04-30T12:05:20.464Z,2.30
2023-04-30T12:07:48.714Z,2.25
2023-04-30T12:10:15.263Z,2.28
2023-04-30T12:12:43.280Z,2.08
2023-04-30T12:15:19.400Z,2.85
2023-04-30T12:17:46.683Z,2.00
2023-04-30T12:20:17.478Z,2.95
2023-04-30T12:22:44.326Z,3.22
2023-04-30T12:25:17.934Z,2.08
2023-04-30T12:27:51.895Z,2.17
2023-04-30T12:30:26.680Z,2.53
2023-04-30T12:32:54.740Z,1.95
2023-04-30T12:35:22.958Z,2.10
2023-04-30T12:37:52.058Z,2.03
2023-04-30T12:40:20.131Z,2.28
2023-04-30T12:42:49.497Z,2.30
2023-04-30T12:45:44.594Z,2.10
2023-04-30T12:48:11.919Z,2.20
2023-04-30T12:50:39.271Z,2.08
2023-04-30T12:53:07.533Z,2.40
2023-04-30T12:55:35.110Z,1.90
2023-04-30T12:58:08.835Z,2.08
2023-04-30T13:00:49.060Z,2.25
2023-04-30T13:03:20.833Z,2.15
2023-04-30T13:05:49.404Z,1.80
2023-04-30T13:08:16.179Z,2.42
2023-04-30T13:10:42.590Z,2.17
2023-04-30T13:13:10.289Z,2.63
2023-04-30T13:15:37.239Z,2.25
2023-04-30T13:18:04.007Z,2.10
2023-04-30T13:20:30.434Z,2.15
2023-04-30T13:22:57.024Z,2.38
2023-04-30T13:25:23.438Z,2.25
2023-04-30T13:27:49.871Z,2.20
2023-04-30T13:30:16.306Z,2.10
2023-04-30T13:32:43.304Z,1.88
2023-04-30T13:35:10.229Z,1.92
2023-04-30T13:37:36.596Z,2.00
2023-04-30T13:40:04.139Z,2.17
2023-04-30T13:42:30.613Z,1.90
2023-04-30T13:44:57.382Z,1.65
2023-04-30T13:47:23.851Z,1.92
2023-04-30T13:49:50.295Z,1.70
2023-04-30T13:52:16.797Z,2.25
2023-04-30T13:54:43.339Z,1.83
2023-04-30T13:57:10.228Z,1.50
2023-04-30T13:59:36.702Z,1.75
2023-04-30T14:02:03.126Z,1.23
2023-04-30T14:04:30.894Z,1.40
2023-04-30T14:06:57.472Z,1.55
2023-04-30T14:09:24.173Z,1.60
2023-04-30T14:11:51.153Z,1.75
2023-04-30T14:14:17.591Z,1.60
2023-04-30T14:16:44.809Z,1.50
2023-04-30T14:19:11.290Z,1.60
2023-04-30T14:21:37.724Z,1.80
2023-04-30T14:24:04.996Z,1.65
2023-04-30T14:26:31.415Z,1.45
2023-04-30T14:28:58.036Z,1.50
2023-04-30T14:31:24.611Z,1.63
2023-04-30T14:33:51.038Z,1.23
2023-04-30T14:36:17.527Z,1.75
2023-04-30T14:38:43.978Z,1.90
2023-04-30T14:41:10.349Z,1.60
2023-04-30T14:43:36.746Z,1.77
2023-04-30T14:46:03.760Z,1.80
2023-04-30T14:48:30.224Z,1.77
2023-04-30T14:50:56.643Z,1.60
2023-04-30T14:53:23.089Z,1.63
2023-04-30T14:55:50.167Z,1.75
2023-04-30T14:58:16.565Z,1.48
2023-04-30T15:00:43.057Z,1.60
2023-04-30T15:03:09.653Z,1.63
2023-04-30T15:05:36.481Z,1.77
2023-04-30T15:08:02.858Z,1.83
2023-04-30T15:10:29.264Z,1.80
2023-04-30T15:12:55.687Z,1.67
2023-04-30T15:15:27.682Z,1.40
2023-04-30T15:20:21.020Z,1.60
2023-04-30T15:22:47.545Z,1.50
2023-04-30T15:25:13.932Z,1.52
2023-04-30T15:27:41.524Z,1.52
2023-04-30T15:30:08.431Z,1.77
2023-04-30T15:32:34.879Z,1.77
2023-04-30T15:35:01.705Z,1.80
2023-04-30T15:37:28.133Z,1.80
2023-04-30T15:39:54.690Z,1.55
2023-04-30T15:42:21.277Z,1.35
2023-04-30T15:44:47.752Z,1.60
2023-04-30T15:47:14.173Z,1.40
2023-04-30T15:49:40.600Z,1.25
2023-04-30T15:52:07.041Z,1.30
2023-04-30T15:54:33.444Z,1.70
2023-04-30T15:57:00.219Z,1.40
2023-04-30T15:59:27.574Z,1.75
2023-04-30T16:01:54.053Z,1.67
2023-04-30T16:04:20.640Z,2.17
2023-04-30T16:06:47.169Z,1.83
2023-04-30T16:09:13.694Z,1.50
2023-04-30T16:11:40.168Z,2.22
2023-04-30T16:14:06.673Z,1.85
2023-04-30T16:16:33.299Z,1.85
2023-04-30T16:18:59.735Z,1.80
2023-04-30T16:21:27.190Z,1.80
2023-04-30T16:23:53.902Z,1.60
2023-04-30T16:26:20.614Z,1.40
2023-04-30T16:28:47.426Z,1.50
2023-04-30T16:31:15.551Z,1.63
2023-04-30T16:33:42.536Z,1.92
2023-04-30T16:36:09.922Z,1.60
2023-04-30T16:38:36.925Z,2.00
2023-04-30T16:41:03.606Z,2.65
2023-04-30T16:43:30.051Z,1.80
2023-04-30T16:45:56.592Z,1.80
2023-04-30T16:48:23.073Z,1.98
2023-04-30T16:50:49.458Z,1.83
2023-04-30T16:53:15.828Z,1.90
2023-04-30T16:55:43.166Z,2.30
2023-04-30T16:58:09.656Z,1.45
2023-04-30T17:00:36.623Z,1.67
2023-04-30T17:03:04.652Z,1.50
2023-04-30T17:05:31.275Z,1.92
2023-04-30T17:07:57.794Z,2.22
2023-04-30T17:10:25.478Z,2.30
2023-04-30T17:12:52.246Z,1.80
2023-04-30T17:15:20.178Z,1.70
2023-04-30T17:17:46.628Z,1.67
2023-04-30T17:20:13.117Z,2.47
2023-04-30T17:22:40.128Z,2.10
2023-04-30T17:25:06.826Z,1.90
2023-04-30T17:27:33.331Z,1.88
2023-04-30T17:29:59.802Z,1.85
2023-04-30T17:32:27.728Z,1.60
2023-04-30T17:34:54.171Z,2.05
2023-04-30T17:37:20.541Z,2.40
2023-04-30T17:39:46.949Z,2.45
2023-04-30T17:42:13.323Z,2.08
2023-04-30T17:44:40.009Z,2.20
2023-04-30T17:47:07.223Z,1.90
2023-04-30T17:49:33.587Z,1.80
2023-04-30T17:52:01.390Z,1.85
2023-04-30T17:54:30.946Z,1.58
2023-04-30T17:56:59.003Z,1.80
2023-04-30T17:59:27.625Z,1.55
2023-04-30T18:01:54.143Z,1.70
2023-04-30T18:04:20.661Z,1.85
2023-04-30T18:06:47.556Z,1.38
2023-04-30T18:09:14.869Z,2.08
2023-04-30T18:11:41.308Z,2.10
2023-04-30T18:14:07.685Z,2.00
2023-04-30T18:16:34.499Z,1.92
2023-04-30T18:19:01.057Z,1.73
2023-04-30T18:21:27.499Z,2.00
2023-04-30T18:23:54.506Z,2.17
2023-04-30T18:26:21.704Z,1.88
2023-04-30T18:28:48.403Z,1.60
2023-04-30T18:31:14.957Z,2.10
2023-04-30T18:33:41.394Z,2.20
2023-04-30T18:36:08.353Z,2.80
2023-04-30T18:38:34.910Z,2.30
2023-04-30T18:41:02.336Z,2.03
2023-04-30T18:43:28.757Z,1.90
2023-04-30T18:45:55.165Z,1.85
2023-04-30T18:48:22.952Z,1.98
2023-04-30T18:50:49.939Z,1.98
2023-04-30T18:53:16.893Z,1.98
2023-04-30T18:55:46.217Z,2.30
2023-04-30T18:58:12.801Z,2.20
2023-04-30T19:00:42.938Z,2.17
2023-04-30T19:03:09.816Z,2.17
2023-04-30T19:05:36.527Z,2.60
2023-04-30T19:08:03.039Z,2.45
2023-04-30T19:10:29.640Z,2.72
2023-04-30T19:12:56.112Z,3.10
2023-04-30T19:15:24.749Z,2.58
2023-04-30T19:17:51.243Z,2.78
2023-04-30T19:20:17.751Z,3.47
2023-04-30T19:22:44.129Z,3.85
2023-04-30T19:25:10.559Z,3.88
2023-04-30T19:27:37.031Z,3.45
2023-04-30T19:30:03.697Z,3.13
2023-04-30T19:32:30.250Z,3.08
2023-04-30T19:34:57.852Z,3.30
2023-04-30T19:37:25.049Z,3.03
2023-04-30T19:39:51.439Z,2.97
2023-04-30T19:42:17.821Z,3.00
2023-04-30T19:44:44.184Z,3.15
2023-04-30T19:47:10.555Z,3.03
2023-04-30T19:49:36.952Z,3.13
2023-04-30T19:52:03.347Z,2.72
2023-04-30T19:54:29.720Z,2.70
2023-04-30T19:56:57.851Z,2.90
2023-04-30T19:59:26.656Z,3.35
2023-04-30T20:01:53.439Z,3.47
2023-04-30T20:04:19.906Z,3.80
2023-04-30T20:06:47.389Z,3.78
2023-04-30T20:09:14.990Z,3.42
2023-04-30T20:11:41.391Z,3.30
2023-04-30T20:14:08.153Z,3.67
2023-04-30T20:16:34.619Z,3.15
2023-04-30T20:19:01.101Z,3.38
2023-04-30T20:21:27.774Z,3.30
2023-04-30T20:23:54.280Z,3.90
2023-04-30T20:26:21.448Z,3.58
2023-04-30T20:28:48.279Z,3.60
2023-04-30T20:31:15.085Z,3.67
2023-04-30T20:33:42.258Z,3.78
2023-04-30T20:36:08.632Z,3.72
2023-04-30T20:38:35.382Z,3.45
2023-04-30T20:41:02.084Z,3.50
2023-04-30T20:43:28.676Z,3.28
2023-04-30T20:45:58.999Z,3.20
2023-04-30T20:48:26.336Z,3.20
2023-04-30T20:50:52.719Z,3.40
2023-04-30T20:53:19.731Z,3.30
2023-04-30T20:55:46.267Z,3.22
2023-04-30T20:58:12.751Z,3.10
2023-04-30T21:00:39.291Z,2.97
2023-04-30T21:03:06.000Z,2.95
2023-04-30T21:05:32.820Z,3.15
2023-04-30T21:08:01.489Z,3.58
2023-04-30T21:10:35.008Z,3.25
2023-04-30T21:13:03.437Z,3.28
2023-04-30T21:15:30.747Z,2.90
2023-04-30T21:17:58.229Z,2.83
2023-04-30T21:20:25.189Z,3.45
2023-04-30T21:22:54.801Z,3.05
2023-04-30T21:25:21.987Z,3.38
2023-04-30T21:27:48.617Z,3.17
2023-04-30T21:30:18.176Z,3.40
2023-04-30T21:32:48.372Z,3.80
2023-04-30T21:35:15.364Z,3.08
2023-04-30T21:37:42.081Z,3.08
2023-04-30T21:40:08.864Z,3.22
2023-04-30T21:42:35.844Z,3.60
2023-04-30T21:45:02.380Z,3.22
2023-04-30T21:47:28.846Z,3.72
2023-04-30T21:49:55.499Z,3.72
2023-04-30T21:52:22.172Z,3.80
2023-04-30T21:54:49.196Z,3.88
2023-04-30T21:57:16.040Z,3.60
2023-04-30T21:59:42.415Z,3.40
2023-04-30T22:02:22.342Z,3.95
2023-04-30T22:04:50.242Z,3.58
2023-04-30T22:07:16.991Z,3.42
2023-04-30T22:09:44.373Z,3.30
2023-04-30T22:12:10.961Z,3.88
2023-04-30T22:14:37.337Z,3.38
2023-04-30T22:17:03.732Z,3.22
2023-04-30T22:19:30.104Z,3.00
2023-04-30T22:21:56.524Z,3.17
2023-04-30T22:24:22.968Z,2.97
2023-04-30T22:26:49.813Z,2.75
2023-04-30T22:29:16.306Z,2.67
2023-04-30T22:31:42.824Z,2.65
2023-04-30T22:34:09.289Z,2.83
2023-04-30T22:36:35.667Z,2.60
2023-04-30T22:39:02.175Z,3.40
2023-04-30T22:41:28.552Z,3.13
2023-04-30T22:43:54.980Z,2.45
2023-04-30T22:46:21.636Z,3.15
2023-04-30T22:48:48.064Z,2.75
2023-04-30T22:51:14.466Z,2.88
2023-04-30T22:53:40.830Z,2.75
2023-04-30T22:56:07.664Z,3.10
2023-04-30T22:58:34.147Z,2.90
2023-04-30T23:01:00.596Z,2.92
2023-04-30T23:03:26.983Z,3.10
2023-04-30T23:05:53.647Z,2.78
2023-04-30T23:08:20.060Z,2.85
2023-04-30T23:10:46.460Z,2.60
2023-04-30T23:13:12.840Z,3.08
2023-04-30T23:15:39.357Z,3.08
2023-04-30T23:18:06.407Z,2.83
2023-04-30T23:20:32.945Z,3.03
2023-04-30T23:22:59.599Z,3.38
2023-04-30T23:25:26.464Z,2.80
2023-04-30T23:27:53.762Z,2.90
2023-04-30T23:30:20.229Z,3.40
2023-04-30T23:32:46.696Z,3.33
2023-04-30T23:35:13.108Z,3.67
2023-04-30T23:37:39.463Z,3.70
2023-04-30T23:40:07.381Z,3.85
2023-04-30T23:42:34.560Z,4.03
2023-04-30T23:45:01.236Z,4.43
2023-04-30T23:47:28.455Z,4.70
2023-04-30T23:49:55.200Z,4.88
2023-04-30T23:52:21.848Z,4.85
2023-04-30T23:54:49.098Z,4.70
2023-04-30T23:57:15.497Z,4.82
2023-04-30T23:59:42.620Z,5.18
